Time;durP1;ratioP1;P1;durP2;ratioP2;P2;SDS_P1;SDS_P2;PMS_P1;PMS_P2;Temp;Humidity;BMP_temperature;BMP_pressure;BME280_temperature;BME280_humidity;BME280_pressure;Samples;Min_cycle;Max_cycle;Signal;HPM_P1;HPM_P2
2024/04/02 00:06:54;;;;;;;5.40;1.50;;;;;;;13.14;76.33;97623.02;448357;1235;139407;-69
2024/04/02 00:16:57;;;;;;;4.10;2.00;;;;;;;12.99;75.76;97611.08;444413;1236;5102321;-69
2024/04/02 00:27:00;;;;;;;3.40;1.70;;;;;;;12.87;75.69;97611.41;449420;1239;140732;-69
2024/04/02 00:37:04;;;;;;;3.50;1.80;;;;;;;12.75;75.92;97620.73;447580;1239;140102;-69
2024/04/02 00:47:12;;;;;;;3.50;1.30;;;;;;;12.65;76.16;97628.09;448077;1236;139148;-61
2024/04/02 00:57:16;;;;;;;5.20;2.40;;;;;;;12.53;76.56;97627.39;447831;1236;140096;-62
2024/04/02 01:07:20;;;;;;;6.60;2.50;;;;;;;12.44;77.11;97646.52;448048;1239;139545;-69
2024/04/02 01:17:23;;;;;;;4.10;2.10;;;;;;;12.41;77.51;97652.14;447535;1235;139749;-68
2024/04/02 01:27:27;;;;;;;5.60;2.30;;;;;;;12.39;78.71;97665.10;448050;1239;140792;-69
2024/04/02 01:37:33;;;;;;;2.30;2.10;;;;;;;12.32;79.92;97665.30;447845;1239;139038;-68
2024/04/02 01:47:36;;;;;;;4.30;2.60;;;;;;;12.20;80.59;97677.96;447702;1239;139498;-60
2024/04/02 01:57:39;;;;;;;2.20;2.00;;;;;;;11.96;81.31;97677.17;449046;1239;139976;-61
2024/04/02 02:07:43;;;;;;;2.20;2.00;;;;;;;11.79;82.04;97664.95;447840;1239;138059;-60
2024/04/02 02:17:48;;;;;;;3.20;2.40;;;;;;;11.60;83.15;97669.48;448346;1239;139713;-61
2024/04/02 02:27:53;;;;;;;3.10;2.00;;;;;;;11.46;84.23;97659.26;447699;1239;139109;-61
2024/04/02 02:37:57;;;;;;;2.30;2.10;;;;;;;11.29;84.97;97646.07;447947;1236;139215;-68
2024/04/02 02:48:03;;;;;;;4.20;1.60;;;;;;;11.09;85.40;97653.04;447849;1239;139625;-67
2024/04/02 02:58:08;;;;;;;3.10;1.50;;;;;;;11.00;86.65;97670.02;448114;1237;139152;-61
2024/04/02 03:08:14;;;;;;;3.30;2.30;;;;;;;10.86;87.38;97646.45;447771;1236;141081;-61
2024/04/02 03:18:17;;;;;;;1.90;1.80;;;;;;;10.76;88.42;97641.81;448186;1239;140066;-58
2024/04/02 03:28:22;;;;;;;1.80;1.70;;;;;;;10.65;89.18;97651.46;448128;1239;139389;-58
2024/04/02 03:38:27;;;;;;;3.50;1.70;;;;;;;10.47;89.97;97651.20;448009;1236;140126;-68
2024/04/02 03:48:31;;;;;;;3.40;2.30;;;;;;;10.37;91.01;97673.42;447715;1236;139318;-68
2024/04/02 03:58:35;;;;;;;2.10;2.00;;;;;;;10.29;91.96;97685.56;448716;1239;139618;-62
2024/04/02 04:08:38;;;;;;;3.30;3.00;;;;;;;10.18;92.66;97672.27;448178;1239;139250;-62
2024/04/02 04:18:42;;;;;;;2.40;2.20;;;;;;;10.10;93.43;97670.16;449320;1239;139758;-61
2024/04/02 04:28:45;;;;;;;1.80;1.60;;;;;;;10.01;93.72;97673.47;448407;1239;139707;-62
2024/04/02 04:38:51;;;;;;;2.50;2.30;;;;;;;9.93;94.59;97672.25;447999;1239;139038;-60
2024/04/02 04:48:56;;;;;;;2.50;2.30;;;;;;;9.89;95.51;97677.70;447996;1238;140064;-62
2024/04/02 04:59:00;;;;;;;3.20;2.60;;;;;;;9.85;96.09;97680.65;447696;1239;139722;-60
2024/04/02 05:09:03;;;;;;;2.50;2.10;;;;;;;9.82;96.62;97691.73;448127;1239;139466;-61
2024/04/02 05:19:07;;;;;;;2.80;2.60;;;;;;;9.80;96.51;97699.30;448027;1239;140310;-69
2024/04/02 05:29:11;;;;;;;3.10;2.90;;;;;;;9.81;97.23;97705.30;448046;1239;140087;-61
2024/04/02 05:39:14;;;;;;;2.80;2.60;;;;;;;9.80;97.22;97705.55;447927;1239;140619;-61
2024/04/02 05:49:20;;;;;;;3.20;2.90;;;;;;;9.73;97.18;97702.34;448230;1236;138903;-61
2024/04/02 05:59:23;;;;;;;2.70;2.50;;;;;;;9.73;97.46;97716.48;448209;1235;139463;-59
2024/04/02 06:09:26;;;;;;;2.40;2.20;;;;;;;9.76;97.67;97718.19;449965;1239;139740;-56
2024/04/02 06:19:32;;;;;;;2.80;2.60;;;;;;;9.74;97.74;97697.23;448145;1239;139452;-60
2024/04/02 06:29:35;;;;;;;3.20;2.80;;;;;;;9.77;97.87;97724.52;448354;1239;139457;-62
2024/04/02 06:39:38;;;;;;;2.90;2.70;;;;;;;9.71;97.30;97748.82;448231;1239;139557;-59
2024/04/02 06:49:42;;;;;;;2.60;2.30;;;;;;;9.56;96.57;97776.04;447905;1239;139499;-70
2024/04/02 06:59:45;;;;;;;2.70;2.30;;;;;;;9.45;96.28;97776.80;448581;1236;140113;-72
2024/04/02 07:09:52;;;;;;;;;;;;;;;9.44;95.91;97772.39;449094;1237;139803;-60
2024/04/02 07:19:57;;;;;;;4.10;3.10;;;;;;;9.48;95.60;97769.94;461894;1235;126162;-58
2024/04/02 07:30:00;;;;;;;3.60;3.00;;;;;;;9.58;95.14;97782.64;461890;1235;140062;-59
2024/04/02 07:40:05;;;;;;;3.30;2.80;;;;;;;9.64;95.13;97789.31;461809;1235;139412;-64
2024/04/02 07:50:08;;;;;;;3.30;3.00;;;;;;;9.68;95.10;97797.65;461839;1235;138867;-57
2024/04/02 08:00:15;;;;;;;3.20;2.50;;;;;;;9.62;94.57;97792.59;461788;1235;140069;-61
2024/04/02 08:10:19;;;;;;;3.10;2.60;;;;;;;9.73;94.17;97781.15;461870;1235;139426;-60
2024/04/02 08:20:22;;;;;;;5.30;2.50;;;;;;;9.95;92.70;97800.35;461957;1238;139752;-58
2024/04/02 08:30:25;;;;;;;4.90;2.80;;;;;;;10.03;90.68;97835.60;461713;1239;139798;-69
2024/04/02 08:40:32;;;;;;;5.20;2.70;;;;;;;10.07;89.75;97868.70;461815;1235;140100;-60
2024/04/02 08:50:36;;;;;;;2.90;2.70;;;;;;;10.05;88.87;97882.16;461891;1239;139840;-62
2024/04/02 09:00:39;;;;;;;4.40;2.70;;;;;;;10.07;88.48;97887.05;461553;1236;139692;-57
2024/04/02 09:10:43;;;;;;;3.90;2.90;;;;;;;10.16;88.09;97901.46;461797;1235;139882;-59
2024/04/02 09:20:48;;;;;;;4.30;3.20;;;;;;;10.28;87.40;97908.83;461970;1239;139792;-57
2024/04/02 09:30:52;;;;;;;5.60;3.10;;;;;;;10.43;86.62;97914.14;461619;1235;139613;-59
2024/04/02 09:40:57;;;;;;;3.20;2.90;;;;;;;10.58;85.80;97919.97;461846;1235;140210;-61
2024/04/02 09:51:02;;;;;;;3.20;3.00;;;;;;;10.79;84.98;97930.34;461915;1235;140120;-58
2024/04/02 10:01:07;;;;;;;4.20;2.90;;;;;;;11.08;84.41;97936.44;461713;1235;139676;-62
2024/04/02 10:11:10;;;;;;;3.00;2.70;;;;;;;11.44;82.91;97946.96;461707;1239;140402;-60
2024/04/02 10:21:16;;;;;;;2.90;2.70;;;;;;;11.79;81.54;97959.12;461866;1235;140359;-58
2024/04/02 10:31:20;;;;;;;3.00;2.70;;;;;;;12.06;80.43;97959.55;461797;1235;139120;-62
2024/04/02 10:41:23;;;;;;;5.30;2.70;;;;;;;12.52;79.25;97954.41;461765;1235;139505;-60
2024/04/02 10:51:27;;;;;;;4.30;2.80;;;;;;;12.83;77.43;97956.84;461715;1235;139541;-56
2024/04/02 11:01:33;;;;;;;5.80;2.90;;;;;;;12.92;76.33;97950.58;461853;1235;139036;-57
2024/04/02 11:11:37;;;;;;;2.50;2.30;;;;;;;13.11;74.92;97967.77;461646;1235;139834;-63
2024/04/02 11:21:41;;;;;;;2.70;2.50;;;;;;;12.94;73.50;97979.80;461679;1235;139472;-61
2024/04/02 11:31:46;;;;;;;4.30;2.70;;;;;;;12.60;72.66;97968.73;461693;1234;140192;-58
2024/04/02 11:41:52;;;;;;;4.50;3.00;;;;;;;12.72;72.62;97978.23;461662;1235;139198;-58
2024/04/02 11:51:55;;;;;;;4.80;3.00;;;;;;;12.73;71.78;97990.11;461648;1235;139671;-63
2024/04/02 12:01:58;;;;;;;4.80;3.50;;;;;;;12.65;71.62;98003.69;461781;1235;138960;-60
2024/04/02 12:12:01;;;;;;;5.00;2.70;;;;;;;12.54;71.09;98015.53;457658;1235;5085344;-67
2024/04/02 12:22:04;;;;;;;2.80;2.60;;;;;;;12.29;71.13;98022.69;461638;1235;139294;-64
2024/04/02 12:32:08;;;;;;;4.20;2.40;;;;;;;12.48;71.39;98026.40;455576;1235;138970;-73
2024/04/02 12:42:12;;;;;;;7.00;3.20;;;;;;;12.83;70.65;98028.38;448812;1239;139563;-72
2024/04/02 12:52:16;;;;;;;3.00;2.30;;;;;;;12.97;69.91;98042.05;461575;1235;139063;-62
2024/04/02 13:02:19;;;;;;;3.10;1.60;;;;;;;13.26;69.11;98051.86;461669;1235;139486;-68
2024/04/02 13:12:23;;;;;;;2.50;1.90;;;;;;;13.11;68.05;98053.34;461601;1235;139346;-59
2024/04/02 13:22:26;;;;;;;6.40;3.10;;;;;;;13.20;68.03;98045.63;461611;1235;140147;-60
2024/04/02 13:32:29;;;;;;;4.20;1.90;;;;;;;13.54;67.78;98042.65;461754;1235;139590;-57
2024/04/02 13:42:32;;;;;;;10.30;2.50;;;;;;;13.60;66.81;98038.48;461613;1235;139765;-58
2024/04/02 13:52:36;;;;;;;4.00;1.50;;;;;;;13.40;66.44;98037.10;461635;1235;139144;-64
2024/04/02 14:02:39;;;;;;;3.00;2.00;;;;;;;13.42;66.02;98030.11;461781;1235;138405;-62
2024/04/02 14:12:42;;;;;;;4.10;2.10;;;;;;;13.55;65.89;98031.10;461820;1235;139442;-60
2024/04/02 14:22:46;;;;;;;3.90;1.30;;;;;;;13.58;65.75;98028.09;461850;1235;138749;-59
2024/04/02 14:32:49;;;;;;;2.70;1.80;;;;;;;13.57;65.51;98032.52;461848;1235;138599;-54
2024/04/02 14:42:52;;;;;;;3.50;1.20;;;;;;;13.52;65.12;98035.57;461847;1235;139538;-57
2024/04/02 14:52:56;;;;;;;1.70;1.20;;;;;;;13.50;64.62;98039.86;461950;1235;138399;-58
2024/04/02 15:03:04;;;;;;;4.00;1.90;;;;;;;13.46;64.31;98045.50;462018;1235;138278;-65
2024/04/02 15:13:10;;;;;;;2.30;1.70;;;;;;;13.29;64.57;98054.27;461772;1235;138363;-61
2024/04/02 15:23:13;;;;;;;5.60;2.30;;;;;;;13.13;64.60;98044.23;461797;1235;139240;-59
2024/04/02 15:33:16;;;;;;;3.70;1.70;;;;;;;12.91;65.07;98038.65;461607;1235;138747;-72
2024/04/02 15:43:19;;;;;;;4.60;1.90;;;;;;;12.87;64.76;98048.14;461651;1235;139146;-62
2024/04/02 15:53:23;;;;;;;1.70;1.00;;;;;;;12.70;64.25;98057.48;461823;1235;138455;-66
2024/04/02 16:03:26;;;;;;;0.80;0.70;;;;;;;12.49;63.75;98084.29;456012;1235;138940;-68
2024/04/02 16:13:30;;;;;;;5.60;0.90;;;;;;;12.04;63.91;98094.25;450615;1236;138779;-70
2024/04/02 16:23:33;;;;;;;1.60;1.10;;;;;;;11.64;64.62;98087.45;448686;1239;138783;-60
2024/04/02 16:33:38;;;;;;;1.30;0.90;;;;;;;11.28;65.33;98096.98;448640;1239;138858;-59
2024/04/02 16:43:51;;;;;;;1.60;0.80;;;;;;;11.03;65.92;98105.02;448649;1239;138393;-63
2024/04/02 16:53:56;;;;;;;1.60;1.20;;;;;;;10.73;66.56;98111.28;448510;1239;138605;-62
2024/04/02 17:04:01;;;;;;;1.60;0.90;;;;;;;10.39;67.42;98113.67;448514;1235;139941;-66
2024/04/02 17:14:04;;;;;;;3.20;1.10;;;;;;;10.11;68.08;98118.20;448905;1235;139215;-70
2024/04/02 17:24:08;;;;;;;3.10;1.50;;;;;;;9.88;68.63;98121.35;450638;1235;139079;-70
2024/04/02 17:34:13;;;;;;;1.40;1.20;;;;;;;9.70;69.00;98139.48;448959;1235;139406;-70
2024/04/02 17:44:16;;;;;;;6.00;1.30;;;;;;;9.52;69.77;98144.42;448523;1239;139248;-58
2024/04/02 17:54:19;;;;;;;2.90;1.70;;;;;;;9.39;70.91;98150.52;449171;1235;138986;-59
2024/04/02 18:04:23;;;;;;;2.80;1.10;;;;;;;9.34;71.60;98156.88;448356;1239;139442;-58
2024/04/02 18:14:27;;;;;;;3.80;1.40;;;;;;;9.30;72.12;98171.13;448718;1235;139496;-64
2024/04/02 18:24:31;;;;;;;2.80;1.90;;;;;;;9.21;72.74;98177.62;449282;1235;139441;-62
2024/04/02 18:34:34;;;;;;;4.10;1.90;;;;;;;9.07;73.30;98183.33;449002;1238;139075;-62
2024/04/02 18:44:38;;;;;;;3.00;1.80;;;;;;;8.95;73.91;98180.42;450589;1236;139808;-63
2024/04/02 18:54:41;;;;;;;4.10;2.10;;;;;;;8.82;74.72;98175.34;449172;1235;139568;-62
2024/04/02 19:04:45;;;;;;;7.90;2.80;;;;;;;8.75;75.53;98170.95;448927;1239;139171;-62
2024/04/02 19:14:49;;;;;;;2.50;1.90;;;;;;;8.75;75.84;98161.94;449471;1239;139121;-70
2024/04/02 19:24:53;;;;;;;3.00;2.40;;;;;;;8.67;75.91;98163.90;449148;1235;139386;-70
2024/04/02 19:34:56;;;;;;;5.40;2.50;;;;;;;8.64;75.89;98170.59;449513;1239;139977;-69
2024/04/02 19:45:00;;;;;;;2.50;1.50;;;;;;;8.67;75.85;98164.48;450490;1239;139609;-69
2024/04/02 19:55:04;;;;;;;2.70;2.00;;;;;;;8.73;75.78;98165.01;448748;1235;138875;-64
2024/04/02 20:05:08;;;;;;;3.70;1.90;;;;;;;8.88;76.52;98156.73;449311;1239;140276;-60
2024/04/02 20:15:11;;;;;;;3.10;2.00;;;;;;;8.98;76.22;98162.04;449032;1235;139473;-64
2024/04/02 20:25:14;;;;;;;2.90;2.00;;;;;;;8.98;76.00;98167.09;448328;1239;139619;-60
2024/04/02 20:35:18;;;;;;;2.20;1.60;;;;;;;8.83;75.76;98164.24;448465;1236;138941;-61
2024/04/02 20:45:21;;;;;;;2.10;1.50;;;;;;;8.53;76.04;98168.85;448657;1236;139418;-64
2024/04/02 20:55:25;;;;;;;3.90;1.30;;;;;;;8.36;76.50;98177.09;448556;1235;139721;-64
2024/04/02 21:05:29;;;;;;;3.70;1.40;;;;;;;8.50;77.87;98183.69;448378;1239;138912;-60
2024/04/02 21:15:32;;;;;;;3.40;1.70;;;;;;;8.57;78.55;98183.73;448454;1239;140026;-60
2024/04/02 21:25:35;;;;;;;3.20;1.60;;;;;;;8.47;78.43;98182.75;448685;1235;138924;-60
2024/04/02 21:35:38;;;;;;;3.40;1.10;;;;;;;8.37;78.43;98186.95;448177;1239;139447;-61
2024/04/02 21:45:42;;;;;;;2.60;1.50;;;;;;;8.30;78.37;98189.95;448196;1237;139375;-61
2024/04/02 21:55:46;;;;;;;6.50;1.90;;;;;;;8.38;78.90;98189.36;448573;1236;139324;-61
2024/04/02 22:05:56;;;;;;;3.60;1.20;;;;;;;8.45;78.65;98190.00;449122;1239;139171;-63
2024/04/02 22:16:01;;;;;;;2.40;1.70;;;;;;;8.52;78.22;98195.27;448444;1236;140032;-61
2024/04/02 22:26:07;;;;;;;2.10;1.20;;;;;;;8.53;77.75;98199.02;449395;1239;139004;-61
2024/04/02 22:36:11;;;;;;;1.50;1.30;;;;;;;8.60;77.34;98195.33;456492;1238;139094;-61
2024/04/02 22:46:16;;;;;;;1.40;0.90;;;;;;;8.64;76.97;98198.19;450515;1239;139485;-61
2024/04/02 22:56:19;;;;;;;5.10;1.00;;;;;;;8.72;76.84;98195.15;449337;1239;139891;-63
2024/04/02 23:06:22;;;;;;;5.10;1.70;;;;;;;8.74;76.51;98189.97;454837;1239;139258;-61
2024/04/02 23:16:26;;;;;;;1.80;1.10;;;;;;;8.73;76.34;98186.70;449217;1239;139277;-69
2024/04/02 23:26:29;;;;;;;3.70;1.10;;;;;;;8.77;76.52;98190.56;448950;1239;138938;-68
2024/04/02 23:36:33;;;;;;;3.30;0.80;;;;;;;8.84;76.33;98190.91;448936;1239;139365;-60
2024/04/02 23:46:36;;;;;;;3.10;1.00;;;;;;;8.87;76.21;98185.56;447695;1239;139637;-62
2024/04/02 23:56:39;;;;;;;1.20;0.60;;;;;;;8.85;76.25;98179.10;447962;1239;138927;-69
